sensor_id;sensor_type;location;lat;lon;timestamp;P1;durP1;ratioP1;P2;durP2;ratioP2
21354;SDS011;10835;50.148;19.760;2022-11-15T00:01:24;20.67;;;9.05;;
21354;SDS011;10835;50.148;19.760;2022-11-15T00:04:11;17.02;;;9.00;;
21354;SDS011;10835;50.148;19.760;2022-11-15T00:06:58;16.45;;;8.07;;
21354;SDS011;10835;50.148;19.760;2022-11-15T00:09:45;15.73;;;7.82;;
21354;SDS011;10835;50.148;19.760;2022-11-15T00:12:31;13.40;;;7.10;;
21354;SDS011;10835;50.148;19.760;2022-11-15T00:15:18;13.10;;;6.47;;
21354;SDS011;10835;50.148;19.760;2022-11-15T00:18:05;14.65;;;8.18;;
21354;SDS011;10835;50.148;19.760;2022-11-15T00:20:54;12.18;;;7.10;;
21354;SDS011;10835;50.148;19.760;2022-11-15T00:23:41;14.48;;;8.20;;
21354;SDS011;10835;50.148;19.760;2022-11-15T00:26:27;14.35;;;7.50;;
21354;SDS011;10835;50.148;19.760;2022-11-15T00:29:14;14.00;;;7.45;;
21354;SDS011;10835;50.148;19.760;2022-11-15T00:32:01;13.02;;;6.93;;
21354;SDS011;10835;50.148;19.760;2022-11-15T00:34:48;14.30;;;7.88;;
21354;SDS011;10835;50.148;19.760;2022-11-15T00:37:36;13.00;;;6.97;;
21354;SDS011;10835;50.148;19.760;2022-11-15T00:40:22;12.85;;;7.25;;
21354;SDS011;10835;50.148;19.760;2022-11-15T00:43:09;11.50;;;6.03;;
21354;SDS011;10835;50.148;19.760;2022-11-15T00:45:55;12.13;;;6.53;;
21354;SDS011;10835;50.148;19.760;2022-11-15T00:48:42;12.95;;;7.22;;
21354;SDS011;10835;50.148;19.760;2022-11-15T00:51:28;13.02;;;6.75;;
21354;SDS011;10835;50.148;19.760;2022-11-15T00:54:19;10.07;;;6.07;;
21354;SDS011;10835;50.148;19.760;2022-11-15T00:57:06;13.00;;;6.55;;
21354;SDS011;10835;50.148;19.760;2022-11-15T00:59:52;10.50;;;6.15;;
21354;SDS011;10835;50.148;19.760;2022-11-15T01:02:39;10.38;;;5.95;;
21354;SDS011;10835;50.148;19.760;2022-11-15T01:05:26;10.80;;;6.18;;
21354;SDS011;10835;50.148;19.760;2022-11-15T01:08:13;11.73;;;5.32;;
21354;SDS011;10835;50.148;19.760;2022-11-15T01:11:02;11.40;;;6.20;;
21354;SDS011;10835;50.148;19.760;2022-11-15T01:13:50;11.70;;;5.43;;
21354;SDS011;10835;50.148;19.760;2022-11-15T01:16:36;13.82;;;6.13;;
21354;SDS011;10835;50.148;19.760;2022-11-15T01:19:23;9.48;;;5.30;;
21354;SDS011;10835;50.148;19.760;2022-11-15T01:22:10;11.95;;;5.95;;
21354;SDS011;10835;50.148;19.760;2022-11-15T01:24:57;12.43;;;6.03;;
21354;SDS011;10835;50.148;19.760;2022-11-15T01:27:45;11.10;;;5.45;;
21354;SDS011;10835;50.148;19.760;2022-11-15T01:30:32;10.43;;;5.10;;
21354;SDS011;10835;50.148;19.760;2022-11-15T01:33:18;8.60;;;4.78;;
21354;SDS011;10835;50.148;19.760;2022-11-15T01:36:06;9.80;;;5.25;;
21354;SDS011;10835;50.148;19.760;2022-11-15T01:38:54;12.00;;;5.35;;
21354;SDS011;10835;50.148;19.760;2022-11-15T01:41:42;7.63;;;4.47;;
21354;SDS011;10835;50.148;19.760;2022-11-15T01:44:36;8.98;;;4.75;;
21354;SDS011;10835;50.148;19.760;2022-11-15T01:47:25;8.82;;;4.72;;
21354;SDS011;10835;50.148;19.760;2022-11-15T01:50:15;6.28;;;3.58;;
21354;SDS011;10835;50.148;19.760;2022-11-15T01:53:05;6.50;;;3.88;;
21354;SDS011;10835;50.148;19.760;2022-11-15T01:55:52;8.48;;;4.35;;
21354;SDS011;10835;50.148;19.760;2022-11-15T01:58:40;9.15;;;4.70;;
21354;SDS011;10835;50.148;19.760;2022-11-15T02:01:29;7.97;;;4.20;;
21354;SDS011;10835;50.148;19.760;2022-11-15T02:04:20;7.38;;;4.05;;
21354;SDS011;10835;50.148;19.760;2022-11-15T02:07:11;9.40;;;4.55;;
21354;SDS011;10835;50.148;19.760;2022-11-15T02:10:02;8.15;;;4.30;;
21354;SDS011;10835;50.148;19.760;2022-11-15T02:12:53;9.90;;;4.32;;
21354;SDS011;10835;50.148;19.760;2022-11-15T02:15:43;8.10;;;4.50;;
21354;SDS011;10835;50.148;19.760;2022-11-15T02:18:44;6.57;;;3.58;;
21354;SDS011;10835;50.148;19.760;2022-11-15T02:21:35;5.32;;;3.53;;
21354;SDS011;10835;50.148;19.760;2022-11-15T02:24:38;6.57;;;3.97;;
21354;SDS011;10835;50.148;19.760;2022-11-15T02:27:42;4.78;;;3.38;;
21354;SDS011;10835;50.148;19.760;2022-11-15T02:30:54;6.18;;;3.38;;
21354;SDS011;10835;50.148;19.760;2022-11-15T02:33:48;7.80;;;3.58;;
21354;SDS011;10835;50.148;19.760;2022-11-15T02:36:44;7.95;;;3.78;;
21354;SDS011;10835;50.148;19.760;2022-11-15T02:39:41;9.52;;;3.70;;
21354;SDS011;10835;50.148;19.760;2022-11-15T02:42:33;9.02;;;4.07;;
21354;SDS011;10835;50.148;19.760;2022-11-15T02:45:50;6.65;;;3.20;;
21354;SDS011;10835;50.148;19.760;2022-11-15T02:48:40;5.75;;;3.45;;
21354;SDS011;10835;50.148;19.760;2022-11-15T02:51:29;4.55;;;2.75;;
21354;SDS011;10835;50.148;19.760;2022-11-15T02:54:17;7.55;;;4.03;;
21354;SDS011;10835;50.148;19.760;2022-11-15T02:57:10;9.38;;;3.95;;
21354;SDS011;10835;50.148;19.760;2022-11-15T03:00:02;6.80;;;3.70;;
21354;SDS011;10835;50.148;19.760;2022-11-15T03:02:57;6.68;;;3.17;;
21354;SDS011;10835;50.148;19.760;2022-11-15T03:05:59;6.05;;;2.97;;
21354;SDS011;10835;50.148;19.760;2022-11-15T03:08:57;6.05;;;3.53;;
21354;SDS011;10835;50.148;19.760;2022-11-15T03:11:52;6.75;;;3.38;;
21354;SDS011;10835;50.148;19.760;2022-11-15T03:14:47;5.65;;;3.38;;
21354;SDS011;10835;50.148;19.760;2022-11-15T03:17:41;6.72;;;3.70;;
21354;SDS011;10835;50.148;19.760;2022-11-15T03:20:31;7.93;;;3.85;;
21354;SDS011;10835;50.148;19.760;2022-11-15T03:23:19;6.32;;;3.75;;
21354;SDS011;10835;50.148;19.760;2022-11-15T03:26:07;8.32;;;4.40;;
21354;SDS011;10835;50.148;19.760;2022-11-15T03:28:57;6.10;;;3.80;;
21354;SDS011;10835;50.148;19.760;2022-11-15T03:31:47;7.57;;;3.95;;
21354;SDS011;10835;50.148;19.760;2022-11-15T03:34:38;5.93;;;3.20;;
21354;SDS011;10835;50.148;19.760;2022-11-15T03:37:29;6.00;;;3.42;;
21354;SDS011;10835;50.148;19.760;2022-11-15T03:40:22;5.68;;;3.22;;
21354;SDS011;10835;50.148;19.760;2022-11-15T03:43:15;6.25;;;3.83;;
21354;SDS011;10835;50.148;19.760;2022-11-15T03:46:11;7.88;;;4.72;;
21354;SDS011;10835;50.148;19.760;2022-11-15T03:49:03;8.05;;;4.18;;
21354;SDS011;10835;50.148;19.760;2022-11-15T03:51:52;8.52;;;3.78;;
21354;SDS011;10835;50.148;19.760;2022-11-15T03:54:48;7.70;;;4.03;;
21354;SDS011;10835;50.148;19.760;2022-11-15T03:57:37;5.70;;;3.58;;
21354;SDS011;10835;50.148;19.760;2022-11-15T04:00:24;6.80;;;4.00;;
21354;SDS011;10835;50.148;19.760;2022-11-15T04:03:11;5.30;;;3.28;;
21354;SDS011;10835;50.148;19.760;2022-11-15T04:05:57;4.68;;;2.95;;
21354;SDS011;10835;50.148;19.760;2022-11-15T04:08:44;12.75;;;4.90;;
21354;SDS011;10835;50.148;19.760;2022-11-15T04:11:31;10.07;;;5.40;;
21354;SDS011;10835;50.148;19.760;2022-11-15T04:14:19;7.22;;;3.67;;
21354;SDS011;10835;50.148;19.760;2022-11-15T04:17:06;8.15;;;4.03;;
21354;SDS011;10835;50.148;19.760;2022-11-15T04:19:52;6.82;;;3.60;;
21354;SDS011;10835;50.148;19.760;2022-11-15T04:22:57;7.97;;;3.80;;
21354;SDS011;10835;50.148;19.760;2022-11-15T04:26:03;6.63;;;3.45;;
21354;SDS011;10835;50.148;19.760;2022-11-15T04:28:51;5.55;;;3.45;;
21354;SDS011;10835;50.148;19.760;2022-11-15T04:31:57;8.82;;;4.28;;
21354;SDS011;10835;50.148;19.760;2022-11-15T04:34:44;6.63;;;4.50;;
21354;SDS011;10835;50.148;19.760;2022-11-15T04:37:30;5.72;;;3.17;;
21354;SDS011;10835;50.148;19.760;2022-11-15T04:40:17;6.00;;;3.50;;
21354;SDS011;10835;50.148;19.760;2022-11-15T04:43:04;6.03;;;3.45;;
21354;SDS011;10835;50.148;19.760;2022-11-15T04:45:50;6.78;;;3.25;;
21354;SDS011;10835;50.148;19.760;2022-11-15T04:48:38;6.57;;;3.95;;
21354;SDS011;10835;50.148;19.760;2022-11-15T04:51:26;7.55;;;4.03;;
21354;SDS011;10835;50.148;19.760;2022-11-15T04:54:13;8.13;;;4.53;;
21354;SDS011;10835;50.148;19.760;2022-11-15T04:56:59;5.97;;;3.38;;
21354;SDS011;10835;50.148;19.760;2022-11-15T04:59:46;5.88;;;3.20;;
21354;SDS011;10835;50.148;19.760;2022-11-15T05:02:33;6.28;;;3.67;;
21354;SDS011;10835;50.148;19.760;2022-11-15T05:05:39;4.63;;;2.78;;
21354;SDS011;10835;50.148;19.760;2022-11-15T05:08:25;6.85;;;3.35;;
21354;SDS011;10835;50.148;19.760;2022-11-15T05:11:12;6.15;;;3.95;;
21354;SDS011;10835;50.148;19.760;2022-11-15T05:13:59;5.93;;;4.10;;
21354;SDS011;10835;50.148;19.760;2022-11-15T05:16:46;6.70;;;3.58;;
21354;SDS011;10835;50.148;19.760;2022-11-15T05:19:32;5.03;;;2.90;;
21354;SDS011;10835;50.148;19.760;2022-11-15T05:22:20;6.78;;;4.07;;
21354;SDS011;10835;50.148;19.760;2022-11-15T05:25:07;7.90;;;4.40;;
21354;SDS011;10835;50.148;19.760;2022-11-15T05:27:54;9.10;;;4.10;;
21354;SDS011;10835;50.148;19.760;2022-11-15T05:30:41;7.85;;;4.10;;
21354;SDS011;10835;50.148;19.760;2022-11-15T05:33:27;5.60;;;3.80;;
21354;SDS011;10835;50.148;19.760;2022-11-15T05:36:16;5.55;;;2.95;;
21354;SDS011;10835;50.148;19.760;2022-11-15T05:39:07;7.35;;;3.58;;
21354;SDS011;10835;50.148;19.760;2022-11-15T05:41:54;5.45;;;3.50;;
21354;SDS011;10835;50.148;19.760;2022-11-15T05:44:46;8.25;;;4.10;;
21354;SDS011;10835;50.148;19.760;2022-11-15T05:47:35;7.57;;;4.05;;
21354;SDS011;10835;50.148;19.760;2022-11-15T05:50:24;9.68;;;4.05;;
21354;SDS011;10835;50.148;19.760;2022-11-15T05:53:11;9.90;;;4.40;;
21354;SDS011;10835;50.148;19.760;2022-11-15T05:56:01;7.88;;;3.67;;
21354;SDS011;10835;50.148;19.760;2022-11-15T05:58:48;6.15;;;3.38;;
21354;SDS011;10835;50.148;19.760;2022-11-15T06:01:42;5.93;;;3.45;;
21354;SDS011;10835;50.148;19.760;2022-11-15T06:04:28;6.05;;;3.28;;
21354;SDS011;10835;50.148;19.760;2022-11-15T06:07:15;7.22;;;4.07;;
21354;SDS011;10835;50.148;19.760;2022-11-15T06:10:02;7.95;;;4.55;;
21354;SDS011;10835;50.148;19.760;2022-11-15T06:12:56;9.10;;;4.90;;
21354;SDS011;10835;50.148;19.760;2022-11-15T06:15:43;7.03;;;3.63;;
21354;SDS011;10835;50.148;19.760;2022-11-15T06:18:31;7.95;;;3.83;;
21354;SDS011;10835;50.148;19.760;2022-11-15T06:21:19;6.45;;;3.35;;
21354;SDS011;10835;50.148;19.760;2022-11-15T06:24:06;9.48;;;3.85;;
21354;SDS011;10835;50.148;19.760;2022-11-15T06:26:53;5.38;;;3.05;;
21354;SDS011;10835;50.148;19.760;2022-11-15T06:29:41;6.32;;;3.38;;
21354;SDS011;10835;50.148;19.760;2022-11-15T06:32:29;5.80;;;3.58;;
21354;SDS011;10835;50.148;19.760;2022-11-15T06:35:16;8.07;;;3.78;;
21354;SDS011;10835;50.148;19.760;2022-11-15T06:38:03;6.07;;;3.50;;
21354;SDS011;10835;50.148;19.760;2022-11-15T06:40:51;6.28;;;3.20;;
21354;SDS011;10835;50.148;19.760;2022-11-15T06:43:38;7.38;;;4.00;;
21354;SDS011;10835;50.148;19.760;2022-11-15T06:46:26;9.40;;;3.45;;
21354;SDS011;10835;50.148;19.760;2022-11-15T06:49:13;7.07;;;3.60;;
21354;SDS011;10835;50.148;19.760;2022-11-15T06:52:03;8.32;;;4.00;;
21354;SDS011;10835;50.148;19.760;2022-11-15T06:54:50;6.35;;;3.80;;
21354;SDS011;10835;50.148;19.760;2022-11-15T06:57:36;7.90;;;3.47;;
21354;SDS011;10835;50.148;19.760;2022-11-15T07:00:29;4.63;;;2.72;;
21354;SDS011;10835;50.148;19.760;2022-11-15T07:03:17;8.52;;;3.80;;
21354;SDS011;10835;50.148;19.760;2022-11-15T07:06:03;5.30;;;3.20;;
21354;SDS011;10835;50.148;19.760;2022-11-15T07:08:51;8.25;;;3.92;;
21354;SDS011;10835;50.148;19.760;2022-11-15T07:11:38;8.77;;;4.53;;
21354;SDS011;10835;50.148;19.760;2022-11-15T07:14:25;9.75;;;4.22;;
21354;SDS011;10835;50.148;19.760;2022-11-15T07:17:11;10.77;;;5.45;;
21354;SDS011;10835;50.148;19.760;2022-11-15T07:19:59;3.63;;;2.83;;
21354;SDS011;10835;50.148;19.760;2022-11-15T07:22:46;5.07;;;3.15;;
21354;SDS011;10835;50.148;19.760;2022-11-15T07:25:34;5.13;;;3.17;;
21354;SDS011;10835;50.148;19.760;2022-11-15T07:28:22;8.60;;;3.78;;
21354;SDS011;10835;50.148;19.760;2022-11-15T07:31:09;5.47;;;3.25;;
21354;SDS011;10835;50.148;19.760;2022-11-15T07:33:56;4.50;;;2.67;;
21354;SDS011;10835;50.148;19.760;2022-11-15T07:36:43;5.78;;;3.70;;
21354;SDS011;10835;50.148;19.760;2022-11-15T07:39:30;5.55;;;2.95;;
21354;SDS011;10835;50.148;19.760;2022-11-15T07:42:17;5.93;;;3.45;;
21354;SDS011;10835;50.148;19.760;2022-11-15T07:45:22;5.65;;;3.28;;
21354;SDS011;10835;50.148;19.760;2022-11-15T07:48:10;6.85;;;3.70;;
21354;SDS011;10835;50.148;19.760;2022-11-15T07:50:57;6.50;;;3.58;;
21354;SDS011;10835;50.148;19.760;2022-11-15T07:53:45;7.32;;;4.20;;
21354;SDS011;10835;50.148;19.760;2022-11-15T07:56:32;4.88;;;3.28;;
21354;SDS011;10835;50.148;19.760;2022-11-15T07:59:18;6.35;;;3.67;;
21354;SDS011;10835;50.148;19.760;2022-11-15T08:02:05;6.10;;;3.22;;
21354;SDS011;10835;50.148;19.760;2022-11-15T08:04:52;7.05;;;3.72;;
21354;SDS011;10835;50.148;19.760;2022-11-15T08:07:38;7.78;;;4.10;;
21354;SDS011;10835;50.148;19.760;2022-11-15T08:10:30;11.30;;;4.40;;
21354;SDS011;10835;50.148;19.760;2022-11-15T08:13:24;8.43;;;4.18;;
21354;SDS011;10835;50.148;19.760;2022-11-15T08:16:11;10.93;;;4.15;;
21354;SDS011;10835;50.148;19.760;2022-11-15T08:18:57;9.00;;;4.57;;
21354;SDS011;10835;50.148;19.760;2022-11-15T08:21:45;8.73;;;4.55;;
21354;SDS011;10835;50.148;19.760;2022-11-15T08:24:31;7.65;;;4.30;;
21354;SDS011;10835;50.148;19.760;2022-11-15T08:27:20;8.05;;;4.15;;
21354;SDS011;10835;50.148;19.760;2022-11-15T08:30:07;7.35;;;4.72;;
21354;SDS011;10835;50.148;19.760;2022-11-15T08:32:56;7.15;;;3.88;;
21354;SDS011;10835;50.148;19.760;2022-11-15T08:35:43;5.53;;;3.90;;
21354;SDS011;10835;50.148;19.760;2022-11-15T08:38:30;6.32;;;3.60;;
21354;SDS011;10835;50.148;19.760;2022-11-15T08:41:19;6.20;;;3.83;;
21354;SDS011;10835;50.148;19.760;2022-11-15T08:44:12;11.55;;;4.97;;
21354;SDS011;10835;50.148;19.760;2022-11-15T08:46:59;9.02;;;4.70;;
21354;SDS011;10835;50.148;19.760;2022-11-15T08:49:45;9.73;;;5.18;;
21354;SDS011;10835;50.148;19.760;2022-11-15T08:52:32;9.77;;;4.90;;
21354;SDS011;10835;50.148;19.760;2022-11-15T08:55:21;8.52;;;4.93;;
21354;SDS011;10835;50.148;19.760;2022-11-15T08:58:08;11.75;;;5.50;;
21354;SDS011;10835;50.148;19.760;2022-11-15T09:00:56;9.75;;;5.90;;
21354;SDS011;10835;50.148;19.760;2022-11-15T09:03:43;11.07;;;6.25;;
21354;SDS011;10835;50.148;19.760;2022-11-15T09:06:30;9.20;;;5.65;;
21354;SDS011;10835;50.148;19.760;2022-11-15T09:09:17;10.35;;;4.85;;
21354;SDS011;10835;50.148;19.760;2022-11-15T09:12:03;11.60;;;6.35;;
21354;SDS011;10835;50.148;19.760;2022-11-15T09:14:51;10.05;;;5.15;;
21354;SDS011;10835;50.148;19.760;2022-11-15T09:17:39;11.60;;;5.75;;
21354;SDS011;10835;50.148;19.760;2022-11-15T09:20:26;12.07;;;7.00;;
21354;SDS011;10835;50.148;19.760;2022-11-15T09:23:12;8.63;;;4.88;;
21354;SDS011;10835;50.148;19.760;2022-11-15T09:26:00;9.15;;;5.53;;
21354;SDS011;10835;50.148;19.760;2022-11-15T09:28:47;10.32;;;5.20;;
21354;SDS011;10835;50.148;19.760;2022-11-15T09:31:34;9.07;;;5.28;;
21354;SDS011;10835;50.148;19.760;2022-11-15T09:34:22;11.07;;;5.60;;
21354;SDS011;10835;50.148;19.760;2022-11-15T09:37:08;9.27;;;5.25;;
21354;SDS011;10835;50.148;19.760;2022-11-15T09:39:55;9.52;;;4.95;;
21354;SDS011;10835;50.148;19.760;2022-11-15T09:42:46;7.93;;;5.55;;
21354;SDS011;10835;50.148;19.760;2022-11-15T09:45:41;9.50;;;5.85;;
21354;SDS011;10835;50.148;19.760;2022-11-15T09:48:48;14.00;;;8.18;;
21354;SDS011;10835;50.148;19.760;2022-11-15T09:51:44;15.90;;;8.20;;
21354;SDS011;10835;50.148;19.760;2022-11-15T09:54:18;11.40;;;6.22;;
21354;SDS011;10835;50.148;19.760;2022-11-15T09:57:15;11.15;;;6.78;;
21354;SDS011;10835;50.148;19.760;2022-11-15T09:59:55;10.73;;;6.78;;
21354;SDS011;10835;50.148;19.760;2022-11-15T10:02:56;10.75;;;5.95;;
21354;SDS011;10835;50.148;19.760;2022-11-15T10:05:39;11.50;;;7.03;;
21354;SDS011;10835;50.148;19.760;2022-11-15T10:08:22;8.55;;;5.68;;
21354;SDS011;10835;50.148;19.760;2022-11-15T10:11:02;11.43;;;6.68;;
21354;SDS011;10835;50.148;19.760;2022-11-15T10:13:53;13.82;;;7.32;;
21354;SDS011;10835;50.148;19.760;2022-11-15T10:19:34;13.40;;;7.75;;
21354;SDS011;10835;50.148;19.760;2022-11-15T10:22:12;10.68;;;7.18;;
21354;SDS011;10835;50.148;19.760;2022-11-15T10:24:49;12.18;;;8.02;;
21354;SDS011;10835;50.148;19.760;2022-11-15T10:27:19;18.13;;;9.45;;
21354;SDS011;10835;50.148;19.760;2022-11-15T10:29:48;9.93;;;6.70;;
21354;SDS011;10835;50.148;19.760;2022-11-15T10:32:17;13.05;;;7.88;;
21354;SDS011;10835;50.148;19.760;2022-11-15T10:34:46;10.02;;;6.50;;
21354;SDS011;10835;50.148;19.760;2022-11-15T10:37:15;12.00;;;7.57;;
21354;SDS011;10835;50.148;19.760;2022-11-15T10:40:06;11.13;;;7.22;;
21354;SDS011;10835;50.148;19.760;2022-11-15T10:42:47;16.88;;;7.65;;
21354;SDS011;10835;50.148;19.760;2022-11-15T10:45:25;13.50;;;7.88;;
21354;SDS011;10835;50.148;19.760;2022-11-15T10:48:18;13.55;;;7.78;;
21354;SDS011;10835;50.148;19.760;2022-11-15T10:50:49;12.85;;;7.43;;
21354;SDS011;10835;50.148;19.760;2022-11-15T10:56:14;12.43;;;7.28;;
21354;SDS011;10835;50.148;19.760;2022-11-15T10:58:43;10.43;;;6.20;;
21354;SDS011;10835;50.148;19.760;2022-11-15T11:01:17;16.98;;;8.95;;
21354;SDS011;10835;50.148;19.760;2022-11-15T11:03:58;13.50;;;8.85;;
21354;SDS011;10835;50.148;19.760;2022-11-15T11:06:27;11.95;;;7.35;;
21354;SDS011;10835;50.148;19.760;2022-11-15T11:08:56;12.93;;;7.85;;
21354;SDS011;10835;50.148;19.760;2022-11-15T11:11:28;14.00;;;8.82;;
21354;SDS011;10835;50.148;19.760;2022-11-15T11:14:13;14.95;;;8.30;;
21354;SDS011;10835;50.148;19.760;2022-11-15T11:16:48;15.88;;;8.57;;
21354;SDS011;10835;50.148;19.760;2022-11-15T11:22:18;15.55;;;8.63;;
21354;SDS011;10835;50.148;19.760;2022-11-15T11:24:54;17.17;;;10.05;;
21354;SDS011;10835;50.148;19.760;2022-11-15T11:27:34;17.13;;;9.63;;
21354;SDS011;10835;50.148;19.760;2022-11-15T11:30:10;17.60;;;9.88;;
21354;SDS011;10835;50.148;19.760;2022-11-15T11:32:49;16.42;;;10.02;;
21354;SDS011;10835;50.148;19.760;2022-11-15T11:35:29;17.23;;;10.18;;
21354;SDS011;10835;50.148;19.760;2022-11-15T11:38:03;15.85;;;9.90;;
21354;SDS011;10835;50.148;19.760;2022-11-15T11:40:44;17.27;;;10.77;;
21354;SDS011;10835;50.148;19.760;2022-11-15T11:43:22;17.25;;;10.48;;
21354;SDS011;10835;50.148;19.760;2022-11-15T11:46:11;18.00;;;10.55;;
21354;SDS011;10835;50.148;19.760;2022-11-15T11:48:52;17.92;;;10.82;;
21354;SDS011;10835;50.148;19.760;2022-11-15T11:51:27;23.67;;;10.70;;
21354;SDS011;10835;50.148;19.760;2022-11-15T11:54:00;23.85;;;10.25;;
21354;SDS011;10835;50.148;19.760;2022-11-15T11:56:33;17.88;;;10.45;;
21354;SDS011;10835;50.148;19.760;2022-11-15T11:59:07;19.00;;;10.68;;
21354;SDS011;10835;50.148;19.760;2022-11-15T12:01:44;19.25;;;11.65;;
21354;SDS011;10835;50.148;19.760;2022-11-15T12:04:13;16.23;;;9.48;;
21354;SDS011;10835;50.148;19.760;2022-11-15T12:06:46;15.85;;;9.90;;
21354;SDS011;10835;50.148;19.760;2022-11-15T12:09:19;18.17;;;10.88;;
21354;SDS011;10835;50.148;19.760;2022-11-15T12:11:52;19.17;;;11.65;;
21354;SDS011;10835;50.148;19.760;2022-11-15T12:14:31;19.60;;;11.55;;
21354;SDS011;10835;50.148;19.760;2022-11-15T12:17:02;23.88;;;11.38;;
21354;SDS011;10835;50.148;19.760;2022-11-15T12:19:30;20.67;;;12.40;;
21354;SDS011;10835;50.148;19.760;2022-11-15T12:22:00;21.17;;;12.98;;
21354;SDS011;10835;50.148;19.760;2022-11-15T12:24:33;19.27;;;11.73;;
21354;SDS011;10835;50.148;19.760;2022-11-15T12:27:08;18.38;;;11.55;;
21354;SDS011;10835;50.148;19.760;2022-11-15T12:29:52;19.70;;;10.93;;
21354;SDS011;10835;50.148;19.760;2022-11-15T12:32:25;27.13;;;12.98;;
21354;SDS011;10835;50.148;19.760;2022-11-15T12:34:55;20.27;;;11.32;;
21354;SDS011;10835;50.148;19.760;2022-11-15T12:37:32;18.00;;;11.50;;
21354;SDS011;10835;50.148;19.760;2022-11-15T12:40:20;23.10;;;12.52;;
21354;SDS011;10835;50.148;19.760;2022-11-15T12:43:00;23.02;;;13.00;;
21354;SDS011;10835;50.148;19.760;2022-11-15T12:45:54;21.17;;;11.55;;
21354;SDS011;10835;50.148;19.760;2022-11-15T12:54:51;21.27;;;11.63;;
21354;SDS011;10835;50.148;19.760;2022-11-15T12:57:27;23.33;;;12.88;;
21354;SDS011;10835;50.148;19.760;2022-11-15T13:03:25;26.42;;;12.90;;
21354;SDS011;10835;50.148;19.760;2022-11-15T13:06:05;21.73;;;12.70;;
21354;SDS011;10835;50.148;19.760;2022-11-15T13:08:57;20.98;;;12.23;;
21354;SDS011;10835;50.148;19.760;2022-11-15T13:17:25;23.55;;;13.55;;
21354;SDS011;10835;50.148;19.760;2022-11-15T13:22:59;28.70;;;14.95;;
21354;SDS011;10835;50.148;19.760;2022-11-15T13:28:26;32.70;;;15.15;;
21354;SDS011;10835;50.148;19.760;2022-11-15T13:31:00;29.65;;;13.50;;
21354;SDS011;10835;50.148;19.760;2022-11-15T13:33:30;26.92;;;14.18;;
21354;SDS011;10835;50.148;19.760;2022-11-15T13:36:03;25.77;;;13.77;;
21354;SDS011;10835;50.148;19.760;2022-11-15T13:38:37;25.05;;;14.30;;
21354;SDS011;10835;50.148;19.760;2022-11-15T13:41:11;34.25;;;14.98;;
21354;SDS011;10835;50.148;19.760;2022-11-15T13:43:45;23.60;;;13.68;;
21354;SDS011;10835;50.148;19.760;2022-11-15T13:46:18;22.98;;;13.07;;
21354;SDS011;10835;50.148;19.760;2022-11-15T13:48:53;24.48;;;13.52;;
21354;SDS011;10835;50.148;19.760;2022-11-15T13:51:32;35.30;;;15.75;;
21354;SDS011;10835;50.148;19.760;2022-11-15T13:54:07;22.42;;;12.63;;
21354;SDS011;10835;50.148;19.760;2022-11-15T13:56:48;43.75;;;19.52;;
21354;SDS011;10835;50.148;19.760;2022-11-15T13:59:23;56.58;;;30.88;;
21354;SDS011;10835;50.148;19.760;2022-11-15T14:01:52;37.55;;;17.95;;
21354;SDS011;10835;50.148;19.760;2022-11-15T14:04:22;31.98;;;15.68;;
21354;SDS011;10835;50.148;19.760;2022-11-15T14:06:55;27.25;;;13.88;;
21354;SDS011;10835;50.148;19.760;2022-11-15T14:09:31;24.15;;;14.82;;
21354;SDS011;10835;50.148;19.760;2022-11-15T14:12:24;25.70;;;13.30;;
21354;SDS011;10835;50.148;19.760;2022-11-15T14:14:53;28.33;;;15.10;;
21354;SDS011;10835;50.148;19.760;2022-11-15T14:17:32;24.48;;;15.15;;
21354;SDS011;10835;50.148;19.760;2022-11-15T14:20:18;27.75;;;15.50;;
21354;SDS011;10835;50.148;19.760;2022-11-15T14:22:53;27.85;;;15.50;;
21354;SDS011;10835;50.148;19.760;2022-11-15T14:25:25;38.28;;;17.70;;
21354;SDS011;10835;50.148;19.760;2022-11-15T14:28:11;32.65;;;17.30;;
21354;SDS011;10835;50.148;19.760;2022-11-15T14:30:44;28.80;;;16.27;;
21354;SDS011;10835;50.148;19.760;2022-11-15T14:33:20;27.25;;;16.30;;
21354;SDS011;10835;50.148;19.760;2022-11-15T14:35:52;27.25;;;15.60;;
21354;SDS011;10835;50.148;19.760;2022-11-15T14:38:23;28.00;;;15.88;;
21354;SDS011;10835;50.148;19.760;2022-11-15T14:40:51;29.45;;;16.15;;
21354;SDS011;10835;50.148;19.760;2022-11-15T14:43:20;29.35;;;16.23;;
21354;SDS011;10835;50.148;19.760;2022-11-15T14:45:48;32.10;;;17.15;;
21354;SDS011;10835;50.148;19.760;2022-11-15T14:48:16;31.63;;;16.52;;
21354;SDS011;10835;50.148;19.760;2022-11-15T14:50:44;26.45;;;16.25;;
21354;SDS011;10835;50.148;19.760;2022-11-15T14:53:12;32.20;;;16.67;;
21354;SDS011;10835;50.148;19.760;2022-11-15T14:55:47;33.10;;;15.88;;
21354;SDS011;10835;50.148;19.760;2022-11-15T14:58:15;30.55;;;16.38;;
21354;SDS011;10835;50.148;19.760;2022-11-15T15:00:43;26.63;;;16.70;;
21354;SDS011;10835;50.148;19.760;2022-11-15T15:03:11;53.70;;;24.77;;
21354;SDS011;10835;50.148;19.760;2022-11-15T15:05:41;36.38;;;18.52;;
21354;SDS011;10835;50.148;19.760;2022-11-15T15:08:10;32.20;;;18.45;;
21354;SDS011;10835;50.148;19.760;2022-11-15T15:10:41;30.98;;;18.20;;
21354;SDS011;10835;50.148;19.760;2022-11-15T15:13:15;35.88;;;19.40;;
21354;SDS011;10835;50.148;19.760;2022-11-15T15:15:44;41.95;;;21.85;;
21354;SDS011;10835;50.148;19.760;2022-11-15T15:18:13;39.65;;;19.83;;
21354;SDS011;10835;50.148;19.760;2022-11-15T15:20:41;42.45;;;20.55;;
21354;SDS011;10835;50.148;19.760;2022-11-15T15:23:15;35.67;;;19.77;;
21354;SDS011;10835;50.148;19.760;2022-11-15T15:25:44;37.20;;;18.92;;
21354;SDS011;10835;50.148;19.760;2022-11-15T15:28:15;46.17;;;22.42;;
21354;SDS011;10835;50.148;19.760;2022-11-15T15:30:43;41.40;;;22.48;;
21354;SDS011;10835;50.148;19.760;2022-11-15T15:33:11;51.38;;;25.95;;
21354;SDS011;10835;50.148;19.760;2022-11-15T15:35:42;49.97;;;24.13;;
21354;SDS011;10835;50.148;19.760;2022-11-15T15:38:10;46.85;;;22.90;;
21354;SDS011;10835;50.148;19.760;2022-11-15T15:40:39;51.95;;;26.75;;
21354;SDS011;10835;50.148;19.760;2022-11-15T15:43:07;56.53;;;30.73;;
21354;SDS011;10835;50.148;19.760;2022-11-15T15:45:37;60.70;;;27.80;;
21354;SDS011;10835;50.148;19.760;2022-11-15T15:48:08;52.30;;;27.50;;
21354;SDS011;10835;50.148;19.760;2022-11-15T15:50:40;42.03;;;22.98;;
21354;SDS011;10835;50.148;19.760;2022-11-15T15:53:10;49.58;;;26.20;;
21354;SDS011;10835;50.148;19.760;2022-11-15T15:55:39;45.92;;;24.25;;
21354;SDS011;10835;50.148;19.760;2022-11-15T15:58:07;43.75;;;25.25;;
21354;SDS011;10835;50.148;19.760;2022-11-15T16:00:37;51.95;;;26.58;;
21354;SDS011;10835;50.148;19.760;2022-11-15T16:03:05;55.08;;;28.10;;
21354;SDS011;10835;50.148;19.760;2022-11-15T16:05:33;44.88;;;26.50;;
21354;SDS011;10835;50.148;19.760;2022-11-15T16:08:01;52.47;;;27.52;;
21354;SDS011;10835;50.148;19.760;2022-11-15T16:10:32;45.95;;;25.48;;
21354;SDS011;10835;50.148;19.760;2022-11-15T16:13:02;46.63;;;23.80;;
21354;SDS011;10835;50.148;19.760;2022-11-15T16:15:31;45.97;;;23.95;;
21354;SDS011;10835;50.148;19.760;2022-11-15T16:18:01;44.60;;;25.25;;
21354;SDS011;10835;50.148;19.760;2022-11-15T16:20:31;47.42;;;26.13;;
21354;SDS011;10835;50.148;19.760;2022-11-15T16:23:04;45.70;;;24.92;;
21354;SDS011;10835;50.148;19.760;2022-11-15T16:25:39;44.28;;;24.10;;
21354;SDS011;10835;50.148;19.760;2022-11-15T16:28:14;45.35;;;24.50;;